Time;durP1;ratioP1;P1;durP2;ratioP2;P2;SDS_P1;SDS_P2;PMS_P1;PMS_P2;Temp;Humidity;BMP_temperature;BMP_pressure;BME280_temperature;BME280_humidity;BME280_pressure;Samples;Min_cycle;Max_cycle;Signal;HPM_P1;HPM_P2
2021/08/07 00:01:30;;;;;;;;;;;24.20;44.20;;;;;;5101519;27;87135;-48
2021/08/07 00:03:55;;;;;;;;;;;24.20;44.20;;;;;;5100936;27;87549;-48
2021/08/07 00:06:21;;;;;;;;;;;24.10;44.30;;;;;;5102788;27;88174;-48
2021/08/07 00:08:46;;;;;;;;;;;24.10;44.10;;;;;;5104457;27;87118;-50
2021/08/07 00:11:12;;;;;;;;;;;24.10;44.20;;;;;;5102620;27;88733;-49
2021/08/07 00:13:38;;;;;;;;;;;24.10;44.20;;;;;;5100209;27;88071;-48
2021/08/07 00:16:04;;;;;;;;;;;24.10;44.20;;;;;;5100347;27;87237;-48
2021/08/07 00:18:29;;;;;;;;;;;24.10;44.30;;;;;;5101322;27;87149;-48
2021/08/07 00:20:55;;;;;;;;;;;24.00;44.20;;;;;;5103007;27;90133;-48
2021/08/07 00:23:21;;;;;;;;;;;24.00;44.40;;;;;;5101835;27;88052;-48
2021/08/07 00:25:46;;;;;;;;;;;24.00;44.40;;;;;;5102836;27;87685;-49
2021/08/07 00:28:12;;;;;;;;;;;24.00;44.20;;;;;;5103828;27;87135;-48
2021/08/07 00:30:37;;;;;;;;;;;24.00;44.30;;;;;;5102965;27;88831;-48
2021/08/07 00:33:03;;;;;;;;;;;23.90;44.20;;;;;;5103516;27;89088;-52
2021/08/07 00:35:28;;;;;;;;;;;23.90;44.50;;;;;;5101628;27;88690;-48
2021/08/07 00:37:54;;;;;;;;;;;23.90;44.30;;;;;;5099797;27;87552;-48
2021/08/07 00:40:20;;;;;;;;;;;23.90;44.30;;;;;;5100223;27;87625;-48
2021/08/07 00:42:45;;;;;;;;;;;23.90;44.50;;;;;;5102828;27;87177;-48
2021/08/07 00:45:12;;;;;;;;;;;23.90;44.50;;;;;;5099029;27;88580;-48
2021/08/07 00:47:37;;;;;;;;;;;23.80;44.50;;;;;;5099825;27;87181;-48
2021/08/07 00:50:04;;;;;;;;;;;23.80;44.60;;;;;;5101078;27;89066;-51
2021/08/07 00:52:30;;;;;;;;;;;23.80;44.40;;;;;;5099968;27;89963;-49
2021/08/07 00:54:55;;;;;;;;;;;23.80;44.50;;;;;;5099842;27;87129;-51
2021/08/07 00:57:21;;;;;;;;;;;23.80;44.30;;;;;;5100082;27;89473;-49
2021/08/07 00:59:46;;;;;;;;;;;23.80;44.50;;;;;;5100999;27;88282;-48
2021/08/07 01:02:17;;;;;;;;;;;23.70;44.30;;;;;;5105906;27;86404;-48
2021/08/07 01:04:47;;;;;;;;;;;23.70;44.60;;;;;;5102111;27;88133;-48
2021/08/07 01:07:20;;;;;;;;;;;23.70;44.50;;;;;;5101286;27;87152;-48
2021/08/07 01:09:49;;;;;;;;;;;23.70;44.50;;;;;;5098172;27;88076;-48
2021/08/07 01:12:31;;;;;;;;;;;23.60;44.60;;;;;;5101673;27;88424;-48
2021/08/07 01:14:58;;;;;;;;;;;23.60;44.60;;;;;;5100221;27;87181;-49
2021/08/07 01:17:25;;;;;;;;;;;23.60;44.70;;;;;;5100034;27;89113;-48
2021/08/07 01:19:53;;;;;;;;;;;23.60;44.70;;;;;;5100985;27;88039;-49
2021/08/07 01:22:20;;;;;;;;;;;23.60;44.60;;;;;;5103384;27;88036;-48
2021/08/07 01:24:49;;;;;;;;;;;23.60;44.70;;;;;;5104326;27;89160;-48
2021/08/07 01:27:14;;;;;;;;;;;23.60;44.80;;;;;;5101299;27;87592;-48
2021/08/07 01:29:40;;;;;;;;;;;23.60;44.70;;;;;;5098697;27;87323;-48
2021/08/07 01:32:06;;;;;;;;;;;23.60;44.80;;;;;;5098560;27;87571;-48
2021/08/07 01:34:31;;;;;;;;;;;23.50;44.60;;;;;;5098225;27;88061;-47
2021/08/07 01:36:57;;;;;;;;;;;23.50;44.70;;;;;;5097849;27;89395;-48
2021/08/07 01:39:23;;;;;;;;;;;23.50;44.70;;;;;;5099848;27;88794;-48
2021/08/07 01:41:48;;;;;;;;;;;23.50;44.90;;;;;;5098183;27;87139;-48
2021/08/07 01:44:14;;;;;;;;;;;23.40;44.80;;;;;;5099337;27;88078;-48
2021/08/07 01:47:00;;;;;;;;;;;23.40;44.90;;;;;;5102786;27;87632;-49
2021/08/07 01:49:32;;;;;;;;;;;23.40;44.70;;;;;;5098355;27;87594;-48
2021/08/07 01:52:03;;;;;;;;;;;23.40;44.80;;;;;;5102916;27;88052;-49
2021/08/07 01:54:32;;;;;;;;;;;23.40;44.90;;;;;;5101380;27;87248;-48
2021/08/07 01:57:00;;;;;;;;;;;23.30;44.80;;;;;;5100700;27;88014;-48
2021/08/07 01:59:26;;;;;;;;;;;23.30;44.90;;;;;;5101749;27;88581;-51
2021/08/07 02:01:52;;;;;;;;;;;23.30;44.90;;;;;;5101529;27;88279;-48
2021/08/07 02:04:19;;;;;;;;;;;23.30;44.90;;;;;;5099543;27;87842;-47
2021/08/07 02:06:44;;;;;;;;;;;23.30;44.80;;;;;;5101767;27;88231;-49
2021/08/07 02:09:11;;;;;;;;;;;23.30;45.00;;;;;;5102387;27;87199;-49
2021/08/07 02:11:37;;;;;;;;;;;23.20;44.80;;;;;;5102179;27;88055;-49
2021/08/07 02:14:04;;;;;;;;;;;23.20;44.90;;;;;;5101373;27;87168;-49
2021/08/07 02:16:30;;;;;;;;;;;23.20;44.80;;;;;;5101733;27;87571;-48
2021/08/07 02:18:56;;;;;;;;;;;23.10;45.00;;;;;;5101136;27;88898;-48
2021/08/07 02:21:22;;;;;;;;;;;23.10;45.00;;;;;;5102321;27;87116;-49
2021/08/07 02:23:48;;;;;;;;;;;23.10;45.00;;;;;;5101823;27;88108;-49
2021/08/07 02:26:14;;;;;;;;;;;23.10;44.90;;;;;;5101613;27;87496;-52
2021/08/07 02:28:40;;;;;;;;;;;23.10;45.10;;;;;;5101636;27;88650;-48
2021/08/07 02:31:05;;;;;;;;;;;23.00;44.90;;;;;;5105309;27;87428;-50
2021/08/07 02:33:31;;;;;;;;;;;23.00;45.00;;;;;;5101226;27;87132;-49
2021/08/07 02:35:58;;;;;;;;;;;23.00;45.20;;;;;;5101201;27;87121;-49
2021/08/07 02:38:26;;;;;;;;;;;23.00;45.10;;;;;;5099428;27;88292;-48
2021/08/07 02:40:52;;;;;;;;;;;23.00;44.90;;;;;;5101490;27;87961;-48
2021/08/07 02:43:18;;;;;;;;;;;22.90;45.70;;;;;;5100513;27;88749;-48
2021/08/07 02:45:44;;;;;;;;;;;23.00;45.20;;;;;;5096784;27;90110;-48
2021/08/07 02:48:10;;;;;;;;;;;22.90;45.00;;;;;;5097225;27;88100;-48
2021/08/07 02:50:36;;;;;;;;;;;22.90;45.20;;;;;;5100249;27;89066;-48
2021/08/07 02:53:02;;;;;;;;;;;22.90;45.10;;;;;;5096995;27;87765;-48
2021/08/07 02:55:28;;;;;;;;;;;22.90;45.30;;;;;;5097340;27;88621;-48
2021/08/07 02:57:53;;;;;;;;;;;22.90;45.00;;;;;;5097160;27;88057;-48
2021/08/07 03:00:19;;;;;;;;;;;22.80;45.10;;;;;;5098320;27;87146;-49
2021/08/07 03:02:45;;;;;;;;;;;22.80;45.10;;;;;;5097983;27;88727;-48
2021/08/07 03:05:11;;;;;;;;;;;22.80;45.20;;;;;;5097638;27;88742;-49
2021/08/07 03:07:36;;;;;;;;;;;22.80;45.30;;;;;;5098562;27;87149;-48
2021/08/07 03:10:05;;;;;;;;;;;22.80;45.20;;;;;;5099623;27;88599;-48
2021/08/07 03:12:31;;;;;;;;;;;22.70;45.20;;;;;;5101444;27;89058;-48
2021/08/07 03:14:57;;;;;;;;;;;22.70;45.40;;;;;;5097008;27;87825;-48
2021/08/07 03:17:22;;;;;;;;;;;22.70;45.20;;;;;;5097894;27;89703;-48
2021/08/07 03:19:48;;;;;;;;;;;22.70;45.40;;;;;;5099594;27;87138;-49
2021/08/07 03:22:13;;;;;;;;;;;22.70;45.30;;;;;;5100626;27;88102;-49
2021/08/07 03:24:39;;;;;;;;;;;22.70;45.30;;;;;;5100495;27;88850;-48
2021/08/07 03:27:04;;;;;;;;;;;22.60;45.30;;;;;;5097896;27;87192;-48
2021/08/07 03:29:30;;;;;;;;;;;22.60;45.40;;;;;;5097780;27;88968;-48
2021/08/07 03:31:55;;;;;;;;;;;22.60;45.30;;;;;;5098196;27;88440;-48
2021/08/07 03:34:21;;;;;;;;;;;22.60;45.30;;;;;;5102878;27;87146;-48
2021/08/07 03:36:46;;;;;;;;;;;22.60;45.30;;;;;;5100051;27;88234;-50
2021/08/07 03:39:12;;;;;;;;;;;22.60;45.30;;;;;;5102103;27;87781;-48
2021/08/07 03:41:38;;;;;;;;;;;22.50;45.30;;;;;;5100011;27;90375;-48
2021/08/07 03:44:03;;;;;;;;;;;22.50;45.30;;;;;;5100814;27;87553;-48
2021/08/07 03:46:29;;;;;;;;;;;22.50;45.40;;;;;;5102020;27;87161;-49
2021/08/07 03:48:55;;;;;;;;;;;22.40;45.40;;;;;;5103418;27;87280;-50
2021/08/07 03:51:20;;;;;;;;;;;22.40;45.50;;;;;;5104392;27;87311;-51
2021/08/07 03:53:46;;;;;;;;;;;22.40;45.40;;;;;;5103134;27;87604;-48
2021/08/07 03:56:11;;;;;;;;;;;22.40;45.50;;;;;;5102555;27;87155;-48
2021/08/07 03:58:37;;;;;;;;;;;22.30;45.50;;;;;;5100144;27;87217;-48
2021/08/07 04:01:02;;;;;;;;;;;22.30;45.50;;;;;;5100305;27;88696;-48
2021/08/07 04:03:28;;;;;;;;;;;22.30;45.50;;;;;;5101789;27;87310;-49
2021/08/07 04:05:54;;;;;;;;;;;22.30;45.60;;;;;;5103229;27;87245;-49
2021/08/07 04:08:19;;;;;;;;;;;22.30;45.50;;;;;;5104344;27;88462;-50
2021/08/07 04:10:45;;;;;;;;;;;22.30;45.50;;;;;;5101728;27;88136;-47
2021/08/07 04:13:10;;;;;;;;;;;22.30;45.70;;;;;;5099894;27;87185;-48
2021/08/07 04:15:36;;;;;;;;;;;22.20;45.50;;;;;;5101064;27;88852;-49
2021/08/07 04:18:01;;;;;;;;;;;22.20;45.60;;;;;;5105215;27;88662;-49
2021/08/07 04:20:27;;;;;;;;;;;22.20;45.60;;;;;;5103446;27;87141;-48
2021/08/07 04:22:53;;;;;;;;;;;22.20;45.60;;;;;;5103482;27;87963;-48
2021/08/07 04:25:18;;;;;;;;;;;22.20;45.80;;;;;;5103548;27;88118;-49
2021/08/07 04:27:44;;;;;;;;;;;22.10;45.70;;;;;;5101817;27;90176;-48
2021/08/07 04:30:10;;;;;;;;;;;22.20;45.80;;;;;;5099122;27;89657;-48
2021/08/07 04:32:36;;;;;;;;;;;22.10;45.80;;;;;;5099212;27;87109;-48
2021/08/07 04:35:02;;;;;;;;;;;22.10;45.80;;;;;;5100100;27;87141;-48
2021/08/07 04:37:28;;;;;;;;;;;22.10;45.80;;;;;;5100341;27;89996;-47
2021/08/07 04:39:53;;;;;;;;;;;22.10;45.90;;;;;;5105076;27;87140;-49
2021/08/07 04:42:19;;;;;;;;;;;22.10;45.80;;;;;;5102493;27;86399;-48
2021/08/07 04:44:45;;;;;;;;;;;22.10;45.80;;;;;;5102998;27;87244;-48
2021/08/07 04:47:10;;;;;;;;;;;22.10;45.90;;;;;;5103857;27;87848;-48
2021/08/07 04:49:36;;;;;;;;;;;22.10;46.00;;;;;;5099568;27;89583;-50
2021/08/07 04:52:02;;;;;;;;;;;22.00;46.00;;;;;;5099331;27;87133;-48
2021/08/07 04:54:27;;;;;;;;;;;22.00;46.00;;;;;;5100183;27;88791;-49
2021/08/07 04:56:53;;;;;;;;;;;22.00;46.10;;;;;;5100882;27;89464;-48
2021/08/07 04:59:19;;;;;;;;;;;22.00;46.10;;;;;;5105414;27;87102;-48
2021/08/07 05:01:44;;;;;;;;;;;22.00;46.10;;;;;;5102753;27;89539;-51
2021/08/07 05:04:12;;;;;;;;;;;22.00;46.10;;;;;;5102161;27;87180;-49
2021/08/07 05:06:39;;;;;;;;;;;21.90;46.10;;;;;;5102343;27;87283;-48
2021/08/07 05:09:05;;;;;;;;;;;21.90;46.10;;;;;;5100861;27;87219;-49
2021/08/07 05:11:31;;;;;;;;;;;21.90;46.20;;;;;;5102068;27;87201;-50
2021/08/07 05:13:56;;;;;;;;;;;21.90;46.30;;;;;;5102825;27;88142;-53
2021/08/07 05:16:22;;;;;;;;;;;21.90;46.30;;;;;;5102979;27;87650;-49
2021/08/07 05:18:47;;;;;;;;;;;21.90;46.40;;;;;;5101557;27;88175;-50
2021/08/07 05:21:13;;;;;;;;;;;21.90;46.30;;;;;;5101114;27;88781;-48
2021/08/07 05:23:38;;;;;;;;;;;21.90;46.30;;;;;;5099512;27;87134;-48
2021/08/07 05:26:04;;;;;;;;;;;21.80;46.30;;;;;;5100969;27;87137;-49
2021/08/07 05:28:29;;;;;;;;;;;21.90;46.40;;;;;;5101810;27;87305;-49
2021/08/07 05:30:55;;;;;;;;;;;21.90;46.50;;;;;;5103872;27;88074;-49
2021/08/07 05:33:21;;;;;;;;;;;21.80;46.50;;;;;;5100324;27;87275;-48
2021/08/07 05:35:46;;;;;;;;;;;21.80;46.60;;;;;;5098369;27;87954;-48
2021/08/07 05:38:12;;;;;;;;;;;21.80;46.60;;;;;;5099385;27;88093;-48
2021/08/07 05:40:37;;;;;;;;;;;21.80;46.60;;;;;;5101143;27;87566;-49
2021/08/07 05:43:03;;;;;;;;;;;21.80;46.60;;;;;;5105068;27;87756;-49
2021/08/07 05:45:28;;;;;;;;;;;21.80;46.70;;;;;;5102202;27;87871;-48
2021/08/07 05:47:54;;;;;;;;;;;21.80;46.70;;;;;;5098322;27;89207;-48
2021/08/07 05:50:19;;;;;;;;;;;21.80;46.80;;;;;;5099028;27;87131;-49
2021/08/07 05:52:45;;;;;;;;;;;21.70;46.80;;;;;;5100356;27;87178;-50
2021/08/07 05:55:11;;;;;;;;;;;21.80;46.90;;;;;;5101667;27;87078;-49
2021/08/07 05:57:36;;;;;;;;;;;21.70;46.80;;;;;;5101770;27;87141;-48
2021/08/07 06:00:02;;;;;;;;;;;21.80;47.00;;;;;;5100803;27;89068;-48
2021/08/07 06:02:32;;;;;;;;;;;21.80;46.90;;;;;;5097277;27;89225;-48
2021/08/07 06:04:58;;;;;;;;;;;21.70;46.90;;;;;;5103603;27;87160;-48
2021/08/07 06:07:24;;;;;;;;;;;21.70;47.00;;;;;;5099856;27;88086;-50
2021/08/07 06:09:49;;;;;;;;;;;21.70;47.00;;;;;;5101540;27;87165;-48
2021/08/07 06:12:15;;;;;;;;;;;21.70;46.90;;;;;;5102695;27;87711;-52
2021/08/07 06:14:41;;;;;;;;;;;21.80;47.00;;;;;;5099371;27;89432;-48
2021/08/07 06:17:06;;;;;;;;;;;21.70;47.10;;;;;;5098002;27;88195;-49
2021/08/07 06:19:32;;;;;;;;;;;21.70;47.10;;;;;;5099157;27;87481;-48
2021/08/07 06:21:57;;;;;;;;;;;21.70;47.00;;;;;;5097850;27;87746;-49
2021/08/07 06:24:23;;;;;;;;;;;21.70;47.00;;;;;;5098213;27;87116;-50
2021/08/07 06:26:49;;;;;;;;;;;21.70;47.10;;;;;;5099932;27;89103;-47
2021/08/07 06:29:14;;;;;;;;;;;21.70;47.10;;;;;;5097256;27;87131;-48
2021/08/07 06:31:40;;;;;;;;;;;21.70;47.10;;;;;;5097752;27;87159;-50
2021/08/07 06:34:05;;;;;;;;;;;21.70;47.20;;;;;;5098588;27;88115;-48
2021/08/07 06:36:32;;;;;;;;;;;21.70;47.10;;;;;;5100091;27;87173;-48
2021/08/07 06:38:58;;;;;;;;;;;21.70;47.20;;;;;;5099964;27;88783;-48
2021/08/07 06:41:23;;;;;;;;;;;21.70;47.30;;;;;;5100302;27;89489;-49
2021/08/07 06:43:49;;;;;;;;;;;21.70;47.30;;;;;;5102651;27;86516;-50
2021/08/07 06:46:14;;;;;;;;;;;21.70;47.40;;;;;;5099467;27;88520;-47
2021/08/07 06:48:40;;;;;;;;;;;21.70;47.30;;;;;;5099740;27;90440;-48
2021/08/07 06:51:06;;;;;;;;;;;21.70;47.40;;;;;;5097626;27;89242;-50
2021/08/07 06:53:31;;;;;;;;;;;21.70;47.40;;;;;;5099179;27;87527;-48
2021/08/07 06:55:57;;;;;;;;;;;21.60;47.40;;;;;;5100241;27;87171;-48
2021/08/07 06:58:23;;;;;;;;;;;21.70;47.40;;;;;;5101537;27;87671;-49
2021/08/07 07:00:48;;;;;;;;;;;21.70;47.60;;;;;;5100656;27;89242;-49
2021/08/07 07:03:14;;;;;;;;;;;21.70;47.50;;;;;;5100316;27;88170;-48
2021/08/07 07:05:39;;;;;;;;;;;21.70;47.60;;;;;;5098502;27;87949;-48
2021/08/07 07:08:05;;;;;;;;;;;21.70;47.60;;;;;;5100609;27;88847;-50
2021/08/07 07:10:31;;;;;;;;;;;21.60;47.50;;;;;;5097388;27;87165;-48
2021/08/07 07:12:56;;;;;;;;;;;21.60;47.50;;;;;;5097080;27;87623;-48
2021/08/07 07:15:22;;;;;;;;;;;21.70;47.60;;;;;;5100151;27;89123;-48
2021/08/07 07:17:48;;;;;;;;;;;21.70;47.60;;;;;;5101237;27;87207;-47
2021/08/07 07:20:14;;;;;;;;;;;21.70;47.70;;;;;;5101930;27;89180;-49
2021/08/07 07:22:40;;;;;;;;;;;21.70;47.70;;;;;;5103002;27;87177;-49
2021/08/07 07:25:07;;;;;;;;;;;21.70;47.70;;;;;;5104006;27;87121;-49
2021/08/07 07:27:32;;;;;;;;;;;21.70;47.70;;;;;;5100973;27;87864;-48
2021/08/07 07:29:58;;;;;;;;;;;21.70;47.70;;;;;;5105502;27;87132;-48
2021/08/07 07:32:24;;;;;;;;;;;21.70;47.80;;;;;;5103763;27;88540;-48
2021/08/07 07:34:49;;;;;;;;;;;21.70;47.70;;;;;;5104979;27;87152;-50
2021/08/07 07:37:15;;;;;;;;;;;21.70;47.80;;;;;;5103302;27;88283;-49
2021/08/07 07:39:40;;;;;;;;;;;21.70;47.80;;;;;;5099130;27;90611;-48
2021/08/07 07:42:06;;;;;;;;;;;21.60;47.60;;;;;;5101375;27;87149;-49
2021/08/07 07:44:32;;;;;;;;;;;21.70;47.90;;;;;;5102513;27;87467;-48
2021/08/07 07:46:57;;;;;;;;;;;21.70;47.70;;;;;;5103009;27;89628;-48
2021/08/07 07:49:23;;;;;;;;;;;21.70;47.70;;;;;;5104598;27;87202;-52
2021/08/07 07:51:48;;;;;;;;;;;21.70;47.90;;;;;;5105237;27;88771;-49
2021/08/07 07:54:14;;;;;;;;;;;21.70;47.80;;;;;;5100226;27;87112;-49
2021/08/07 07:56:39;;;;;;;;;;;21.70;48.00;;;;;;5101836;27;88984;-48
2021/08/07 07:59:05;;;;;;;;;;;21.70;47.80;;;;;;5102350;27;87135;-48
2021/08/07 08:01:30;;;;;;;;;;;21.70;47.80;;;;;;5103830;27;87175;-50
2021/08/07 08:03:56;;;;;;;;;;;21.70;47.90;;;;;;5103689;27;89704;-48
2021/08/07 08:06:22;;;;;;;;;;;21.70;47.80;;;;;;5104166;27;88757;-49
2021/08/07 08:08:47;;;;;;;;;;;21.70;47.70;;;;;;5101445;27;87198;-48
2021/08/07 08:11:13;;;;;;;;;;;21.70;47.80;;;;;;5100385;27;87602;-51
2021/08/07 08:13:38;;;;;;;;;;;21.70;47.70;;;;;;5104123;27;88623;-48
2021/08/07 08:16:05;;;;;;;;;;;21.70;47.70;;;;;;5102592;27;88844;-49
2021/08/07 08:18:31;;;;;;;;;;;21.70;47.80;;;;;;5101792;27;87670;-48
2021/08/07 08:20:56;;;;;;;;;;;21.70;47.70;;;;;;5103687;27;86412;-48
2021/08/07 08:23:22;;;;;;;;;;;21.70;47.60;;;;;;5104186;27;87218;-50
2021/08/07 08:25:48;;;;;;;;;;;21.70;47.60;;;;;;5102861;27;89137;-48
2021/08/07 08:28:13;;;;;;;;;;;21.70;47.60;;;;;;5102596;27;89833;-48
2021/08/07 08:30:39;;;;;;;;;;;21.80;47.60;;;;;;5100164;27;88522;-49
2021/08/07 08:33:05;;;;;;;;;;;21.80;47.60;;;;;;5099372;27;89666;-48
2021/08/07 08:35:30;;;;;;;;;;;21.80;47.60;;;;;;5103867;27;87116;-48
2021/08/07 08:37:56;;;;;;;;;;;21.80;47.50;;;;;;5101703;27;88273;-48
2021/08/07 08:40:23;;;;;;;;;;;21.80;47.50;;;;;;5103321;27;87259;-49
2021/08/07 08:42:48;;;;;;;;;;;21.80;47.30;;;;;;5102988;27;87370;-50
2021/08/07 08:45:14;;;;;;;;;;;21.80;47.30;;;;;;5104210;27;86496;-52
2021/08/07 08:47:40;;;;;;;;;;;21.80;47.30;;;;;;5101251;27;88360;-48
2021/08/07 08:50:06;;;;;;;;;;;21.80;47.30;;;;;;5101216;27;88716;-48
2021/08/07 08:52:35;;;;;;;;;;;21.80;47.40;;;;;;5098336;27;90635;-48
2021/08/07 08:55:01;;;;;;;;;;;21.80;47.30;;;;;;5102572;27;87249;-48
2021/08/07 08:57:26;;;;;;;;;;;21.80;47.20;;;;;;5106159;27;88881;-53
2021/08/07 08:59:52;;;;;;;;;;;21.90;47.20;;;;;;5101458;27;87261;-51
2021/08/07 09:02:18;;;;;;;;;;;21.90;47.30;;;;;;5100225;27;89191;-48
2021/08/07 09:04:43;;;;;;;;;;;21.90;47.20;;;;;;5098972;27;88689;-49
2021/08/07 09:07:12;;;;;;;;;;;21.90;47.20;;;;;;5100489;27;87123;-48
2021/08/07 09:09:38;;;;;;;;;;;21.90;47.30;;;;;;5104623;27;86500;-48
2021/08/07 09:12:05;;;;;;;;;;;21.90;47.20;;;;;;5102864;27;88273;-49
2021/08/07 09:14:32;;;;;;;;;;;21.90;47.20;;;;;;5103681;27;87177;-48
2021/08/07 09:16:57;;;;;;;;;;;21.90;47.20;;;;;;5104574;27;89491;-49
2021/08/07 09:19:23;;;;;;;;;;;21.90;47.10;;;;;;5102554;27;88115;-48
2021/08/07 09:22:07;;;;;;;;;;;21.90;47.30;;;;;;5100423;27;88749;-48
2021/08/07 09:24:33;;;;;;;;;;;21.90;47.40;;;;;;5101143;27;87977;-48
2021/08/07 09:27:02;;;;;;;;;;;21.90;47.10;;;;;;5102083;27;87113;-48
2021/08/07 09:29:35;;;;;;;;;;;22.00;47.20;;;;;;5098734;27;87715;-53
2021/08/07 09:32:00;;;;;;;;;;;22.00;47.10;;;;;;5102634;27;89607;-48
2021/08/07 09:34:26;;;;;;;;;;;21.90;47.00;;;;;;5100516;27;87989;-49
2021/08/07 09:36:53;;;;;;;;;;;22.00;47.00;;;;;;5099794;27;88645;-48
2021/08/07 09:39:35;;;;;;;;;;;22.00;47.10;;;;;;5105604;27;88481;-48
2021/08/07 09:42:01;;;;;;;;;;;22.00;47.00;;;;;;5101988;27;88119;-49
2021/08/07 09:44:27;;;;;;;;;;;22.00;47.00;;;;;;5102036;27;88451;-48
2021/08/07 09:47:07;;;;;;;;;;;22.00;47.10;;;;;;5102343;27;88832;-49
2021/08/07 09:49:37;;;;;;;;;;;22.00;47.00;;;;;;5098831;27;88694;-49
2021/08/07 09:52:03;;;;;;;;;;;22.10;47.00;;;;;;5099781;27;87419;-48
2021/08/07 09:54:36;;;;;;;;;;;22.10;47.00;;;;;;5099458;27;87115;-48
2021/08/07 09:57:02;;;;;;;;;;;22.10;47.20;;;;;;5100841;27;89207;-48
2021/08/07 09:59:33;;;;;;;;;;;22.10;47.00;;;;;;5098294;27;88798;-49
2021/08/07 10:01:59;;;;;;;;;;;22.10;47.00;;;;;;5101662;27;87134;-48
2021/08/07 10:04:25;;;;;;;;;;;22.10;47.00;;;;;;5098507;27;89699;-48
2021/08/07 10:07:05;;;;;;;;;;;22.20;47.00;;;;;;5099312;27;88157;-49
2021/08/07 10:09:32;;;;;;;;;;;22.10;47.00;;;;;;5101564;27;89818;-48
2021/08/07 10:12:01;;;;;;;;;;;22.20;46.80;;;;;;5099605;27;87520;-48
2021/08/07 10:14:26;;;;;;;;;;;22.20;46.90;;;;;;5099969;27;87829;-48
2021/08/07 10:16:52;;;;;;;;;;;22.20;46.80;;;;;;5098173;27;87234;-48
2021/08/07 10:19:18;;;;;;;;;;;22.20;46.80;;;;;;5098424;27;88157;-48
2021/08/07 10:21:46;;;;;;;;;;;22.30;46.80;;;;;;5098710;27;87140;-48
2021/08/07 10:24:12;;;;;;;;;;;22.30;46.90;;;;;;5102622;27;88789;-48
2021/08/07 10:26:38;;;;;;;;;;;22.30;47.00;;;;;;5098272;27;88473;-48
2021/08/07 10:29:05;;;;;;;;;;;22.30;47.10;;;;;;5098165;27;87241;-48
2021/08/07 10:31:31;;;;;;;;;;;22.30;46.70;;;;;;5096846;27;90379;-49
2021/08/07 10:33:58;;;;;;;;;;;22.30;46.50;;;;;;5097906;27;87116;-48
2021/08/07 10:36:25;;;;;;;;;;;22.30;46.60;;;;;;5097471;27;88920;-48
2021/08/07 10:38:54;;;;;;;;;;;22.40;46.90;;;;;;5100400;27;89830;-49
2021/08/07 10:41:20;;;;;;;;;;;22.40;46.60;;;;;;5100060;27;87116;-48
2021/08/07 10:43:50;;;;;;;;;;;22.40;46.60;;;;;;5100738;27;87308;-49
2021/08/07 10:46:16;;;;;;;;;;;22.40;46.80;;;;;;5103814;27;88457;-49
2021/08/07 10:48:46;;;;;;;;;;;22.40;46.60;;;;;;5099133;27;87486;-48
2021/08/07 10:51:24;;;;;;;;;;;22.50;46.40;;;;;;5098331;27;87643;-48
2021/08/07 10:53:50;;;;;;;;;;;22.50;46.50;;;;;;5098283;27;88552;-49
2021/08/07 10:56:25;;;;;;;;;;;22.50;46.80;;;;;;5098871;27;89374;-50
2021/08/07 10:58:51;;;;;;;;;;;22.50;46.80;;;;;;5098341;27;88153;-48
2021/08/07 11:01:19;;;;;;;;;;;22.50;46.80;;;;;;5099633;27;87138;-49
2021/08/07 11:03:49;;;;;;;;;;;22.50;46.80;;;;;;5097329;27;89348;-49
2021/08/07 11:06:14;;;;;;;;;;;22.50;46.90;;;;;;5099622;27;87822;-48
2021/08/07 11:08:40;;;;;;;;;;;22.50;47.00;;;;;;5103910;27;87239;-48
2021/08/07 11:11:24;;;;;;;;;;;22.60;47.10;;;;;;5100851;27;88741;-49
2021/08/07 11:13:50;;;;;;;;;;;22.60;46.60;;;;;;5098856;27;86415;-49
2021/08/07 11:16:19;;;;;;;;;;;22.60;46.70;;;;;;5099722;27;87113;-49
2021/08/07 11:18:45;;;;;;;;;;;22.60;46.30;;;;;;5098328;27;88898;-49
2021/08/07 11:21:31;;;;;;;;;;;22.60;46.60;;;;;;5097137;27;88306;-48
2021/08/07 11:23:56;;;;;;;;;;;22.70;46.40;;;;;;5079324;27;87985;-48
2021/08/07 11:26:42;;;;;;;;;;;22.70;46.30;;;;;;5096906;27;89247;-48
2021/08/07 11:29:08;;;;;;;;;;;22.70;46.40;;;;;;5101026;27;87149;-48
2021/08/07 11:31:34;;;;;;;;;;;22.70;46.20;;;;;;5096305;27;89773;-48
2021/08/07 11:34:18;;;;;;;;;;;22.80;46.80;;;;;;5097365;27;87177;-50
2021/08/07 11:37:02;;;;;;;;;;;22.80;46.70;;;;;;5100647;27;87165;-49
2021/08/07 11:39:47;;;;;;;;;;;22.80;46.40;;;;;;5097507;27;86405;-48
2021/08/07 11:42:31;;;;;;;;;;;22.80;46.40;;;;;;5098557;27;87165;-49
2021/08/07 11:44:57;;;;;;;;;;;22.90;46.70;;;;;;5100954;27;87851;-50
2021/08/07 11:47:23;;;;;;;;;;;22.90;46.70;;;;;;5098884;27;90240;-49
2021/08/07 11:49:48;;;;;;;;;;;22.90;46.40;;;;;;5097023;27;88002;-49
2021/08/07 11:52:14;;;;;;;;;;;22.90;47.10;;;;;;5099221;27;87176;-48
2021/08/07 11:54:39;;;;;;;;;;;22.90;46.50;;;;;;5096884;27;88763;-48
2021/08/07 11:57:20;;;;;;;;;;;23.00;46.20;;;;;;5100833;27;88558;-51
2021/08/07 11:59:46;;;;;;;;;;;23.00;46.00;;;;;;5100997;27;88194;-50
2021/08/07 12:02:15;;;;;;;;;;;23.00;46.30;;;;;;5103077;27;88625;-49
2021/08/07 12:04:41;;;;;;;;;;;23.00;45.90;;;;;;5101938;27;89119;-50
2021/08/07 12:07:10;;;;;;;;;;;23.00;46.10;;;;;;5102070;27;87849;-50
2021/08/07 12:09:36;;;;;;;;;;;23.00;46.40;;;;;;5102996;27;88207;-48
2021/08/07 12:12:03;;;;;;;;;;;23.10;46.80;;;;;;5099866;27;88107;-48
2021/08/07 12:14:28;;;;;;;;;;;23.10;46.60;;;;;;5103283;27;87981;-49
2021/08/07 12:16:54;;;;;;;;;;;23.10;46.70;;;;;;5100306;27;87642;-48
2021/08/07 12:19:21;;;;;;;;;;;23.10;46.80;;;;;;5100225;27;89623;-48
2021/08/07 12:21:47;;;;;;;;;;;23.10;46.90;;;;;;5100515;27;87120;-48
2021/08/07 12:24:13;;;;;;;;;;;23.10;46.50;;;;;;5100898;27;88414;-48
2021/08/07 12:26:39;;;;;;;;;;;23.20;46.80;;;;;;5099067;27;91200;-48
2021/08/07 12:29:06;;;;;;;;;;;23.20;46.60;;;;;;5101211;27;86416;-50
2021/08/07 12:31:38;;;;;;;;;;;23.20;46.10;;;;;;5100574;27;87196;-48
2021/08/07 12:34:30;;;;;;;;;;;23.30;45.70;;;;;;5099439;27;88443;-49
2021/08/07 12:36:58;;;;;;;;;;;23.30;46.30;;;;;;5097428;27;88949;-50
2021/08/07 12:39:25;;;;;;;;;;;23.30;46.30;;;;;;5102681;27;88447;-49
2021/08/07 12:41:50;;;;;;;;;;;23.30;45.90;;;;;;5103174;27;87169;-49
2021/08/07 12:44:23;;;;;;;;;;;23.30;46.00;;;;;;5103903;27;89102;-50
2021/08/07 12:46:50;;;;;;;;;;;23.30;46.10;;;;;;5101630;27;89792;-48
2021/08/07 12:49:32;;;;;;;;;;;23.40;46.20;;;;;;5102229;27;87112;-46
2021/08/07 12:52:01;;;;;;;;;;;23.40;45.40;;;;;;5101725;27;89082;-48
2021/08/07 12:54:27;;;;;;;;;;;23.90;43.30;;;;;;5102901;27;88181;-49
2021/08/07 12:56:52;;;;;;;;;;;24.40;42.20;;;;;;5099776;27;88498;-50
2021/08/07 12:59:18;;;;;;;;;;;24.80;40.60;;;;;;5102468;27;87311;-51
2021/08/07 13:02:00;;;;;;;;;;;24.70;39.60;;;;;;5099793;27;88143;-52
2021/08/07 13:04:39;;;;;;;;;;;24.70;39.60;;;;;;5099539;27;89438;-49
2021/08/07 13:07:05;;;;;;;;;;;24.70;39.30;;;;;;5102774;27;89657;-53
2021/08/07 13:09:32;;;;;;;;;;;24.80;39.40;;;;;;5101669;27;88823;-51
2021/08/07 13:12:05;;;;;;;;;;;24.80;39.40;;;;;;5102335;27;88630;-48
2021/08/07 13:14:31;;;;;;;;;;;24.90;40.50;;;;;;5099059;27;89120;-49
2021/08/07 13:16:57;;;;;;;;;;;25.00;39.40;;;;;;5100083;27;87158;-48
2021/08/07 13:19:27;;;;;;;;;;;25.00;39.10;;;;;;5104271;27;89018;-48
2021/08/07 13:22:07;;;;;;;;;;;24.90;39.10;;;;;;5102848;27;87545;-50
2021/08/07 13:24:34;;;;;;;;;;;24.90;39.30;;;;;;5098912;27;88070;-50
2021/08/07 13:27:01;;;;;;;;;;;25.10;39.00;;;;;;5097612;27;90256;-49
2021/08/07 13:29:27;;;;;;;;;;;25.10;38.40;;;;;;5102957;27;87981;-49
2021/08/07 13:31:53;;;;;;;;;;;25.10;38.80;;;;;;5100852;27;87215;-47
2021/08/07 13:34:19;;;;;;;;;;;25.20;38.40;;;;;;5100299;27;88835;-47
2021/08/07 13:36:45;;;;;;;;;;;25.20;38.60;;;;;;5098839;27;88218;-48
2021/08/07 13:39:11;;;;;;;;;;;25.30;38.10;;;;;;5099199;27;87564;-50
2021/08/07 13:41:40;;;;;;;;;;;25.30;38.00;;;;;;5102412;27;88109;-49
2021/08/07 13:44:06;;;;;;;;;;;25.30;37.70;;;;;;5103041;27;89016;-50
2021/08/07 13:46:32;;;;;;;;;;;25.20;38.50;;;;;;5101225;27;88058;-49
2021/08/07 13:48:57;;;;;;;;;;;25.10;37.80;;;;;;5098244;27;88709;-47
2021/08/07 13:51:24;;;;;;;;;;;25.20;37.70;;;;;;5097963;27;89664;-48
2021/08/07 13:53:49;;;;;;;;;;;25.30;36.80;;;;;;5098863;27;89774;-47
2021/08/07 13:56:15;;;;;;;;;;;25.40;36.10;;;;;;5097875;27;87425;-56
2021/08/07 13:58:40;;;;;;;;;;;25.40;37.30;;;;;;5098607;27;87657;-49
2021/08/07 14:01:06;;;;;;;;;;;25.60;37.40;;;;;;5101265;27;88824;-48
2021/08/07 14:03:32;;;;;;;;;;;25.60;36.20;;;;;;5105643;27;87169;-50
2021/08/07 14:05:57;;;;;;;;;;;25.60;37.50;;;;;;5100692;27;88428;-49
2021/08/07 14:08:23;;;;;;;;;;;25.50;37.00;;;;;;5098384;27;86830;-52
2021/08/07 14:10:48;;;;;;;;;;;25.60;37.10;;;;;;5098965;27;87121;-48
2021/08/07 14:13:14;;;;;;;;;;;25.60;36.90;;;;;;5099556;27;90027;-48
2021/08/07 14:15:39;;;;;;;;;;;25.70;37.70;;;;;;5100468;27;88085;-49